Time;durP1;ratioP1;P1;durP2;ratioP2;P2;SDS_P1;SDS_P2;PMS_P1;PMS_P2;Temp;Humidity;BMP_temperature;BMP_pressure;BME280_temperature;BME280_humidity;BME280_pressure;Samples;Min_cycle;Max_cycle;Signal;HPM_P1;HPM_P2
2023/01/09 00:00:24;;;;;;;;;;;5.00;99.90;;;;;;5009600;28;19933;-74
2023/01/09 00:02:54;;;;;;;;;;;5.00;99.90;;;;;;5021241;28;20016;-71
2023/01/09 00:05:23;;;;;;;;;;;5.00;99.90;;;;;;5019717;28;19931;-71
2023/01/09 00:07:53;;;;;;;;;;;5.00;99.90;;;;;;5016256;28;19969;-73
2023/01/09 00:10:21;;;;;;;;;;;4.90;99.90;;;;;;5013431;28;19926;-73
2023/01/09 00:12:51;;;;;;;;;;;5.00;99.90;;;;;;5011096;28;19925;-73
2023/01/09 00:15:21;;;;;;;;;;;5.00;99.90;;;;;;5023101;28;19925;-72
2023/01/09 00:17:51;;;;;;;;;;;5.00;99.90;;;;;;5011042;28;19925;-71
2023/01/09 00:20:21;;;;;;;;;;;5.00;99.90;;;;;;5008882;28;20013;-75
2023/01/09 00:22:52;;;;;;;;;;;5.00;99.90;;;;;;5024402;28;19930;-72
2023/01/09 00:25:21;;;;;;;;;;;5.10;99.90;;;;;;5018552;28;19930;-71
2023/01/09 00:27:49;;;;;;;;;;;5.10;99.90;;;;;;5018094;28;19929;-71
2023/01/09 00:30:19;;;;;;;;;;;5.10;99.90;;;;;;4998732;28;19936;-71
2023/01/09 00:32:49;;;;;;;;;;;5.10;99.90;;;;;;5003561;28;20020;-71
2023/01/09 00:35:17;;;;;;;;;;;5.10;99.90;;;;;;5020693;28;19925;-71
2023/01/09 00:37:45;;;;;;;;;;;5.10;99.90;;;;;;5016659;28;19925;-73
2023/01/09 00:40:13;;;;;;;;;;;5.10;99.90;;;;;;5020289;28;19932;-71
2023/01/09 00:42:44;;;;;;;;;;;5.10;99.90;;;;;;5021326;28;20297;-71
2023/01/09 00:45:15;;;;;;;;;;;5.10;99.90;;;;;;5015955;28;19988;-71
2023/01/09 00:47:47;;;;;;;;;;;5.10;99.90;;;;;;4998923;28;19960;-71
2023/01/09 00:50:26;;;;;;;;;;;5.30;99.90;;;;;;5016070;28;19952;-72
2023/01/09 00:52:55;;;;;;;;;;;5.30;99.90;;;;;;5022534;28;20010;-72
2023/01/09 00:55:27;;;;;;;;;;;5.40;99.90;;;;;;5007087;28;20016;-71
2023/01/09 00:57:55;;;;;;;;;;;5.60;99.90;;;;;;5015693;28;20012;-71
2023/01/09 01:00:23;;;;;;;;;;;5.60;99.90;;;;;;5017598;28;19965;-72
2023/01/09 01:02:50;;;;;;;;;;;5.70;99.90;;;;;;5007150;28;19931;-72
2023/01/09 01:08:11;;;;;;;;;;;5.70;99.90;;;;;;5014466;28;19926;-71
2023/01/09 01:10:40;;;;;;;;;;;5.70;99.90;;;;;;5012371;28;20730;-72
2023/01/09 01:13:09;;;;;;;;;;;5.70;99.90;;;;;;5016223;28;19926;-71
2023/01/09 01:15:38;;;;;;;;;;;5.70;99.90;;;;;;5021291;28;19953;-71
2023/01/09 01:18:09;;;;;;;;;;;5.70;99.90;;;;;;5017862;28;19925;-71
2023/01/09 01:20:41;;;;;;;;;;;5.70;99.90;;;;;;5016949;28;19926;-72
2023/01/09 01:23:09;;;;;;;;;;;5.60;99.90;;;;;;5022149;28;19930;-72
2023/01/09 01:25:40;;;;;;;;;;;5.60;99.90;;;;;;5013054;28;19980;-71
2023/01/09 01:28:08;;;;;;;;;;;5.50;99.90;;;;;;5017786;28;19925;-70
2023/01/09 01:30:36;;;;;;;;;;;5.50;99.90;;;;;;5017616;28;19926;-71
2023/01/09 01:33:08;;;;;;;;;;;5.50;99.90;;;;;;5017709;28;19925;-72
2023/01/09 01:35:37;;;;;;;;;;;5.40;99.90;;;;;;5004652;28;19961;-72
2023/01/09 01:38:13;;;;;;;;;;;5.40;99.90;;;;;;5005841;28;20412;-73
2023/01/09 01:40:51;;;;;;;;;;;5.40;99.90;;;;;;5005936;28;20408;-72
2023/01/09 01:43:21;;;;;;;;;;;5.40;99.90;;;;;;5001957;28;20373;-72
2023/01/09 01:45:50;;;;;;;;;;;5.40;99.90;;;;;;5001005;28;20343;-72
2023/01/09 01:48:27;;;;;;;;;;;5.40;99.90;;;;;;5002314;28;19930;-72
2023/01/09 01:50:58;;;;;;;;;;;5.30;99.90;;;;;;5015794;28;19927;-73
2023/01/09 01:53:47;;;;;;;;;;;5.40;99.90;;;;;;5024884;28;19937;-71
2023/01/09 01:56:19;;;;;;;;;;;5.30;99.90;;;;;;5002646;28;19926;-72
2023/01/09 01:58:50;;;;;;;;;;;5.30;99.90;;;;;;5013999;28;20075;-71
2023/01/09 02:01:20;;;;;;;;;;;5.20;99.90;;;;;;5001434;28;20016;-71
2023/01/09 02:03:51;;;;;;;;;;;5.20;99.90;;;;;;5020117;28;20024;-72
2023/01/09 02:06:21;;;;;;;;;;;5.20;99.90;;;;;;5019489;28;19989;-72
2023/01/09 02:08:51;;;;;;;;;;;5.20;99.90;;;;;;5004328;28;20116;-71
2023/01/09 02:11:20;;;;;;;;;;;5.20;99.90;;;;;;4997986;28;19976;-71
2023/01/09 02:13:47;;;;;;;;;;;5.20;99.90;;;;;;5015104;28;19932;-72
2023/01/09 02:16:44;;;;;;;;;;;5.20;99.90;;;;;;5022464;28;20516;-71
2023/01/09 02:19:19;;;;;;;;;;;5.20;99.90;;;;;;4998534;28;20487;-72
2023/01/09 02:22:04;;;;;;;;;;;5.20;99.90;;;;;;5010529;28;19929;-72
2023/01/09 02:24:41;;;;;;;;;;;5.20;99.90;;;;;;5027356;28;19933;-71
2023/01/09 02:27:19;;;;;;;;;;;5.20;99.90;;;;;;5019417;28;19925;-71
2023/01/09 02:30:02;;;;;;;;;;;5.20;99.90;;;;;;5000304;28;19937;-71
2023/01/09 02:32:42;;;;;;;;;;;5.20;99.90;;;;;;4998191;28;19932;-71
2023/01/09 02:35:18;;;;;;;;;;;5.20;99.90;;;;;;5004120;28;19937;-72
2023/01/09 02:37:59;;;;;;;;;;;5.20;99.90;;;;;;5022425;28;19926;-71
2023/01/09 02:40:38;;;;;;;;;;;5.30;99.90;;;;;;5001231;28;20456;-71
2023/01/09 02:43:11;;;;;;;;;;;5.30;99.90;;;;;;5009448;28;19925;-72
2023/01/09 02:45:43;;;;;;;;;;;5.40;99.90;;;;;;5016757;28;19926;-72
2023/01/09 02:48:14;;;;;;;;;;;5.40;99.90;;;;;;5009533;28;19932;-71
2023/01/09 02:51:05;;;;;;;;;;;5.30;99.90;;;;;;5022021;28;20220;-71
2023/01/09 02:53:53;;;;;;;;;;;5.40;99.90;;;;;;5004955;28;19929;-72
2023/01/09 02:56:28;;;;;;;;;;;5.40;99.90;;;;;;5003910;28;19925;-71
2023/01/09 02:59:17;;;;;;;;;;;5.40;99.90;;;;;;5021205;28;19933;-72
2023/01/09 03:01:52;;;;;;;;;;;5.50;99.90;;;;;;5017911;28;20001;-73
2023/01/09 03:04:37;;;;;;;;;;;5.60;99.90;;;;;;5006087;28;19934;-72
2023/01/09 03:07:11;;;;;;;;;;;5.70;99.90;;;;;;4998529;28;20020;-72
2023/01/09 03:09:44;;;;;;;;;;;5.90;99.90;;;;;;5006283;28;20394;-72
2023/01/09 03:12:19;;;;;;;;;;;5.90;99.90;;;;;;5006278;28;19929;-72
2023/01/09 03:14:52;;;;;;;;;;;6.00;99.90;;;;;;5007755;28;20022;-72
2023/01/09 03:17:27;;;;;;;;;;;6.00;99.90;;;;;;5002330;28;19980;-72
2023/01/09 03:20:00;;;;;;;;;;;6.00;99.90;;;;;;5010147;28;19961;-72
2023/01/09 03:22:32;;;;;;;;;;;6.00;99.90;;;;;;5023804;28;19960;-72
2023/01/09 03:25:04;;;;;;;;;;;6.00;99.90;;;;;;5013211;28;19926;-72
2023/01/09 03:27:36;;;;;;;;;;;6.10;99.90;;;;;;5005136;28;19926;-72
2023/01/09 03:30:08;;;;;;;;;;;6.20;99.90;;;;;;5017512;28;20339;-72
2023/01/09 03:32:40;;;;;;;;;;;6.20;99.90;;;;;;5001799;28;20300;-73
2023/01/09 03:35:12;;;;;;;;;;;6.20;99.90;;;;;;5024456;28;19980;-72
2023/01/09 03:37:44;;;;;;;;;;;6.20;99.90;;;;;;5003097;28;20396;-72
2023/01/09 03:40:16;;;;;;;;;;;6.30;99.90;;;;;;5004499;28;19965;-72
2023/01/09 03:42:48;;;;;;;;;;;6.30;99.90;;;;;;5003699;28;20294;-72
2023/01/09 03:45:19;;;;;;;;;;;6.30;99.90;;;;;;5019791;28;19930;-72
2023/01/09 03:47:51;;;;;;;;;;;6.30;99.90;;;;;;5001726;28;19932;-73
2023/01/09 03:50:23;;;;;;;;;;;6.30;99.90;;;;;;5014929;28;20270;-73
2023/01/09 03:52:55;;;;;;;;;;;6.30;99.90;;;;;;5009618;28;20016;-72
2023/01/09 03:55:27;;;;;;;;;;;6.30;99.90;;;;;;5022942;28;19929;-72
2023/01/09 03:57:59;;;;;;;;;;;6.30;99.90;;;;;;5009796;28;19925;-72
2023/01/09 04:00:31;;;;;;;;;;;6.30;99.90;;;;;;5003386;28;19996;-72
2023/01/09 04:03:03;;;;;;;;;;;6.30;99.90;;;;;;5009070;28;20009;-72
2023/01/09 04:05:35;;;;;;;;;;;6.30;99.90;;;;;;5005026;28;20288;-72
2023/01/09 04:08:07;;;;;;;;;;;6.40;99.90;;;;;;5000868;28;20292;-72
2023/01/09 04:10:34;;;;;;;;;;;6.40;99.90;;;;;;5003681;28;20443;-72
2023/01/09 04:13:05;;;;;;;;;;;6.40;99.90;;;;;;5005510;28;19940;-72
2023/01/09 04:15:38;;;;;;;;;;;6.40;99.90;;;;;;4995770;28;20392;-72
2023/01/09 04:18:10;;;;;;;;;;;6.40;99.90;;;;;;5002737;28;19925;-72
2023/01/09 04:20:45;;;;;;;;;;;6.40;99.90;;;;;;4996795;28;19996;-73
2023/01/09 04:23:17;;;;;;;;;;;6.40;99.90;;;;;;4999848;28;19976;-72
2023/01/09 04:25:49;;;;;;;;;;;6.50;99.90;;;;;;5008625;28;19929;-72
2023/01/09 04:28:21;;;;;;;;;;;6.50;99.90;;;;;;4999609;28;19974;-72
2023/01/09 04:30:53;;;;;;;;;;;6.50;99.90;;;;;;5002878;28;19984;-72
2023/01/09 04:33:25;;;;;;;;;;;6.50;99.90;;;;;;5002673;28;20048;-72
2023/01/09 04:35:57;;;;;;;;;;;6.50;99.90;;;;;;5019224;28;19935;-72
2023/01/09 04:38:29;;;;;;;;;;;6.50;99.90;;;;;;5001608;28;19925;-72
2023/01/09 04:41:00;;;;;;;;;;;6.60;99.90;;;;;;5010575;28;20121;-72
2023/01/09 04:43:32;;;;;;;;;;;6.60;99.90;;;;;;5009874;28;19935;-71
2023/01/09 04:46:04;;;;;;;;;;;6.60;99.90;;;;;;5003297;28;20040;-72
2023/01/09 04:48:31;;;;;;;;;;;6.70;99.90;;;;;;5003744;28;20265;-72
2023/01/09 04:51:03;;;;;;;;;;;6.70;99.90;;;;;;5018343;28;19979;-72
2023/01/09 04:53:35;;;;;;;;;;;6.70;99.90;;;;;;5000884;28;19929;-72
2023/01/09 04:56:07;;;;;;;;;;;6.70;99.90;;;;;;5005041;28;19933;-72
2023/01/09 04:58:39;;;;;;;;;;;6.70;99.90;;;;;;5013636;28;20401;-72
2023/01/09 05:01:10;;;;;;;;;;;6.60;99.90;;;;;;5006556;28;19956;-72
2023/01/09 05:03:42;;;;;;;;;;;6.60;99.90;;;;;;5007392;28;19968;-72
2023/01/09 05:06:14;;;;;;;;;;;6.50;99.90;;;;;;4998973;28;19979;-72
2023/01/09 05:08:46;;;;;;;;;;;6.50;99.90;;;;;;5005686;28;19949;-72
2023/01/09 05:11:18;;;;;;;;;;;6.50;99.90;;;;;;5004544;28;19980;-72
2023/01/09 05:13:45;;;;;;;;;;;6.40;99.90;;;;;;5015954;28;19937;-72
2023/01/09 05:16:17;;;;;;;;;;;6.40;99.90;;;;;;4986441;28;19953;-72
2023/01/09 05:18:44;;;;;;;;;;;6.40;99.90;;;;;;5023494;28;19929;-72
2023/01/09 05:21:16;;;;;;;;;;;6.40;99.90;;;;;;5004854;28;19929;-71
2023/01/09 05:23:48;;;;;;;;;;;6.40;99.90;;;;;;5009078;28;19933;-72
2023/01/09 05:26:24;;;;;;;;;;;6.30;99.90;;;;;;5003979;28;19925;-71
2023/01/09 05:28:56;;;;;;;;;;;6.30;99.90;;;;;;5022120;28;20029;-72
2023/01/09 05:31:27;;;;;;;;;;;6.30;99.90;;;;;;5004239;28;19933;-72
2023/01/09 05:34:00;;;;;;;;;;;6.30;99.90;;;;;;5002104;28;20436;-72
2023/01/09 05:36:30;;;;;;;;;;;6.30;99.90;;;;;;4998936;28;19926;-72
2023/01/09 05:39:01;;;;;;;;;;;6.30;99.90;;;;;;5003135;28;19952;-72
2023/01/09 05:41:30;;;;;;;;;;;6.30;99.90;;;;;;5002994;28;19925;-73
2023/01/09 05:43:59;;;;;;;;;;;6.30;99.90;;;;;;5021522;28;19952;-72
2023/01/09 05:46:27;;;;;;;;;;;6.20;99.90;;;;;;5000042;28;19926;-72
2023/01/09 05:48:59;;;;;;;;;;;6.10;99.90;;;;;;5022481;28;19926;-72
2023/01/09 05:51:31;;;;;;;;;;;6.10;99.90;;;;;;5023849;28;19937;-72
2023/01/09 05:54:02;;;;;;;;;;;6.00;99.90;;;;;;5009609;28;19925;-72
2023/01/09 05:56:33;;;;;;;;;;;6.10;99.90;;;;;;5019812;28;19956;-72
2023/01/09 05:59:02;;;;;;;;;;;6.00;99.90;;;;;;5020324;28;19929;-72
2023/01/09 06:01:31;;;;;;;;;;;6.00;99.90;;;;;;5003472;28;19988;-72
2023/01/09 06:04:00;;;;;;;;;;;6.00;99.90;;;;;;5007502;28;19926;-72
2023/01/09 06:06:28;;;;;;;;;;;6.00;99.90;;;;;;5011632;28;20527;-72
2023/01/09 06:08:57;;;;;;;;;;;6.00;99.90;;;;;;5019623;28;20389;-72
2023/01/09 06:11:25;;;;;;;;;;;5.90;99.90;;;;;;5007786;28;19925;-72
2023/01/09 06:13:55;;;;;;;;;;;5.90;99.90;;;;;;5009900;28;20407;-72
2023/01/09 06:16:23;;;;;;;;;;;5.80;99.90;;;;;;5001369;28;19934;-72
2023/01/09 06:18:53;;;;;;;;;;;5.90;99.90;;;;;;5015819;28;19925;-72
2023/01/09 06:21:23;;;;;;;;;;;5.80;99.90;;;;;;5022039;28;19929;-72
2023/01/09 06:23:51;;;;;;;;;;;5.80;99.90;;;;;;5016031;28;19928;-72
2023/01/09 06:26:20;;;;;;;;;;;5.70;99.90;;;;;;5035731;28;20049;-71
2023/01/09 06:28:55;;;;;;;;;;;5.60;99.90;;;;;;5012408;28;19926;-73
2023/01/09 06:31:29;;;;;;;;;;;5.60;99.90;;;;;;5009112;28;19969;-72
2023/01/09 06:34:00;;;;;;;;;;;5.50;99.90;;;;;;5018855;28;20377;-72
2023/01/09 06:36:27;;;;;;;;;;;5.40;99.90;;;;;;4996098;28;19936;-72
2023/01/09 06:38:56;;;;;;;;;;;5.30;99.90;;;;;;4991911;28;19925;-72
2023/01/09 06:41:25;;;;;;;;;;;5.20;99.90;;;;;;5010385;28;19926;-72
2023/01/09 06:43:54;;;;;;;;;;;5.20;99.90;;;;;;4988274;28;19930;-72
2023/01/09 06:46:23;;;;;;;;;;;5.10;99.90;;;;;;5009084;28;20028;-72
2023/01/09 06:48:56;;;;;;;;;;;5.10;99.90;;;;;;5018493;28;20438;-72
2023/01/09 06:51:25;;;;;;;;;;;5.00;99.90;;;;;;5017900;28;20396;-72
2023/01/09 06:53:54;;;;;;;;;;;5.00;99.90;;;;;;5024304;28;19926;-72
2023/01/09 06:56:29;;;;;;;;;;;4.90;99.90;;;;;;5023838;28;19930;-72
2023/01/09 06:59:01;;;;;;;;;;;4.80;99.90;;;;;;5019760;28;20385;-72
2023/01/09 07:01:29;;;;;;;;;;;4.80;99.90;;;;;;5017676;28;19991;-72
2023/01/09 07:03:59;;;;;;;;;;;4.70;99.90;;;;;;5030912;28;19957;-72
2023/01/09 07:06:29;;;;;;;;;;;4.70;99.90;;;;;;5022159;28;19929;-72
2023/01/09 07:08:59;;;;;;;;;;;4.70;99.90;;;;;;5013199;28;19932;-72
2023/01/09 07:11:28;;;;;;;;;;;4.60;99.90;;;;;;5010374;28;20360;-73
2023/01/09 07:13:56;;;;;;;;;;;4.60;99.90;;;;;;5016017;28;19988;-73
2023/01/09 07:16:25;;;;;;;;;;;4.60;99.90;;;;;;5024307;28;19932;-73
2023/01/09 07:18:55;;;;;;;;;;;4.60;99.90;;;;;;4994497;28;19930;-72
2023/01/09 07:21:24;;;;;;;;;;;4.60;99.90;;;;;;5017916;28;19930;-73
2023/01/09 07:23:53;;;;;;;;;;;4.50;99.90;;;;;;4983740;28;20032;-72
2023/01/09 07:26:21;;;;;;;;;;;4.50;99.90;;;;;;5026392;28;20024;-72
2023/01/09 07:28:50;;;;;;;;;;;4.40;99.90;;;;;;5026612;28;20396;-72
2023/01/09 07:31:19;;;;;;;;;;;4.40;99.90;;;;;;5022451;28;20001;-72
2023/01/09 07:33:48;;;;;;;;;;;4.40;99.90;;;;;;5022761;28;19925;-72
2023/01/09 07:36:23;;;;;;;;;;;4.40;99.90;;;;;;4992263;28;20321;-72
2023/01/09 07:38:51;;;;;;;;;;;4.40;99.90;;;;;;5011085;28;19939;-72
2023/01/09 07:41:22;;;;;;;;;;;4.40;99.90;;;;;;5022693;28;20480;-72
2023/01/09 07:43:51;;;;;;;;;;;4.40;99.90;;;;;;5008254;28;19926;-72
2023/01/09 07:46:24;;;;;;;;;;;4.40;99.90;;;;;;5000248;28;19934;-72
2023/01/09 07:48:53;;;;;;;;;;;4.40;99.90;;;;;;5014782;28;19929;-72
2023/01/09 07:51:21;;;;;;;;;;;4.40;99.90;;;;;;5015012;28;19984;-72
2023/01/09 07:53:50;;;;;;;;;;;4.40;99.90;;;;;;5014404;28;20009;-70
2023/01/09 07:56:18;;;;;;;;;;;4.40;99.90;;;;;;5004969;28;19926;-72
2023/01/09 07:58:47;;;;;;;;;;;4.40;99.90;;;;;;5017776;28;19925;-71
2023/01/09 08:01:16;;;;;;;;;;;4.40;99.90;;;;;;5017402;28;20005;-72
2023/01/09 08:03:45;;;;;;;;;;;4.40;99.90;;;;;;5006273;28;19926;-72
2023/01/09 08:06:15;;;;;;;;;;;4.40;99.90;;;;;;5008288;28;19925;-73
2023/01/09 08:08:44;;;;;;;;;;;4.30;99.90;;;;;;5021307;28;19960;-72
2023/01/09 08:11:14;;;;;;;;;;;4.30;99.90;;;;;;5003389;28;20040;-71
2023/01/09 08:13:43;;;;;;;;;;;4.40;99.90;;;;;;4996491;28;20035;-72
2023/01/09 08:16:15;;;;;;;;;;;4.30;99.90;;;;;;5001606;28;19961;-71
2023/01/09 08:18:44;;;;;;;;;;;4.40;99.90;;;;;;5007309;28;19965;-72
2023/01/09 08:21:13;;;;;;;;;;;4.40;99.90;;;;;;5017836;28;19925;-72
2023/01/09 08:23:44;;;;;;;;;;;4.40;99.90;;;;;;5019062;28;19926;-72
2023/01/09 08:26:13;;;;;;;;;;;4.40;99.90;;;;;;5007068;28;19925;-72
2023/01/09 08:28:42;;;;;;;;;;;4.40;99.90;;;;;;5015331;28;19933;-72
2023/01/09 08:31:12;;;;;;;;;;;4.40;99.90;;;;;;5007237;28;19929;-72
2023/01/09 08:33:41;;;;;;;;;;;4.50;99.90;;;;;;5008817;28;20281;-72
2023/01/09 08:36:15;;;;;;;;;;;4.50;99.90;;;;;;5009255;28;19932;-72
2023/01/09 08:38:43;;;;;;;;;;;4.50;99.90;;;;;;5022935;28;20416;-73
2023/01/09 08:47:05;;;;;;;;;;;4.50;99.90;;;;;;5015695;28;19932;-71
2023/01/09 08:49:36;;;;;;;;;;;4.60;99.90;;;;;;5016370;28;19930;-72
2023/01/09 08:52:06;;;;;;;;;;;4.50;99.90;;;;;;4989320;28;20489;-71
2023/01/09 08:54:39;;;;;;;;;;;4.50;99.90;;;;;;5017622;28;19957;-73
2023/01/09 08:57:10;;;;;;;;;;;4.50;99.90;;;;;;5021870;28;19929;-72
2023/01/09 08:59:43;;;;;;;;;;;4.50;99.90;;;;;;5016637;28;20298;-73
2023/01/09 09:02:15;;;;;;;;;;;4.50;99.90;;;;;;4988625;28;19926;-72
2023/01/09 09:04:51;;;;;;;;;;;4.50;99.90;;;;;;5004398;28;20340;-73
2023/01/09 09:07:25;;;;;;;;;;;4.50;99.90;;;;;;5020381;28;19925;-69
2023/01/09 09:09:59;;;;;;;;;;;4.40;99.90;;;;;;5020034;28;19925;-71
2023/01/09 09:12:28;;;;;;;;;;;4.40;99.90;;;;;;5004571;28;19933;-73
2023/01/09 09:15:11;;;;;;;;;;;4.50;99.90;;;;;;5021465;28;19948;-73
2023/01/09 09:17:42;;;;;;;;;;;4.50;99.90;;;;;;5002931;28;19930;-73
2023/01/09 09:20:11;;;;;;;;;;;4.50;99.90;;;;;;5003359;28;19926;-72
2023/01/09 09:22:41;;;;;;;;;;;4.60;99.90;;;;;;5004813;28;19929;-71
2023/01/09 09:25:10;;;;;;;;;;;4.60;99.90;;;;;;5007776;28;19936;-73
2023/01/09 09:27:39;;;;;;;;;;;4.70;99.90;;;;;;5030379;28;19940;-71
2023/01/09 09:30:08;;;;;;;;;;;4.70;99.90;;;;;;5038849;28;19934;-73
2023/01/09 09:32:38;;;;;;;;;;;4.70;99.90;;;;;;5001505;28;19939;-73
2023/01/09 09:35:07;;;;;;;;;;;4.70;99.90;;;;;;5005652;28;20048;-72
2023/01/09 09:37:38;;;;;;;;;;;4.70;99.90;;;;;;5003905;28;19961;-71
2023/01/09 09:40:15;;;;;;;;;;;4.70;99.90;;;;;;5017590;28;19933;-73
2023/01/09 09:45:39;;;;;;;;;;;4.70;99.90;;;;;;5019143;28;19929;-73
2023/01/09 09:48:29;;;;;;;;;;;4.70;99.90;;;;;;5018026;28;19926;-71
2023/01/09 09:51:16;;;;;;;;;;;4.70;99.90;;;;;;5000072;28;19939;-73
2023/01/09 09:54:06;;;;;;;;;;;4.80;99.90;;;;;;5021313;28;20025;-71
2023/01/09 09:56:39;;;;;;;;;;;4.80;99.90;;;;;;5005332;28;19930;-72
2023/01/09 09:59:16;;;;;;;;;;;4.90;99.90;;;;;;5023074;28;19980;-73
2023/01/09 10:01:55;;;;;;;;;;;4.90;99.90;;;;;;5017508;28;19953;-73
2023/01/09 10:04:26;;;;;;;;;;;4.90;99.90;;;;;;5005170;28;19925;-72
2023/01/09 10:07:08;;;;;;;;;;;5.00;99.90;;;;;;5019129;28;20045;-72
2023/01/09 10:09:40;;;;;;;;;;;5.00;99.90;;;;;;5005104;28;19965;-73
2023/01/09 10:12:23;;;;;;;;;;;5.00;99.90;;;;;;5001819;28;20811;-72
2023/01/09 10:14:58;;;;;;;;;;;5.00;99.90;;;;;;5002075;28;19929;-73
2023/01/09 10:18:34;;;;;;;;;;;5.00;99.90;;;;;;5006716;28;19932;-71
2023/01/09 10:21:55;;;;;;;;;;;5.10;99.90;;;;;;5010285;28;20277;-73
2023/01/09 10:24:24;;;;;;;;;;;5.20;99.90;;;;;;5020791;28;20145;-73
2023/01/09 10:26:53;;;;;;;;;;;5.20;99.90;;;;;;4999026;28;19934;-73
2023/01/09 10:29:28;;;;;;;;;;;5.30;99.90;;;;;;5010951;28;19949;-73
2023/01/09 10:32:03;;;;;;;;;;;5.30;99.90;;;;;;5003571;28;19930;-73
2023/01/09 10:34:44;;;;;;;;;;;5.40;99.90;;;;;;4988380;28;19937;-73
2023/01/09 10:37:29;;;;;;;;;;;5.40;99.90;;;;;;5025343;28;19949;-69
2023/01/09 10:40:18;;;;;;;;;;;5.50;99.90;;;;;;5020814;28;19941;-73
2023/01/09 10:42:52;;;;;;;;;;;5.50;99.90;;;;;;5023501;28;20287;-73
2023/01/09 10:45:23;;;;;;;;;;;5.50;99.90;;;;;;5025210;28;19926;-72
2023/01/09 10:47:56;;;;;;;;;;;5.50;99.90;;;;;;5024743;28;20044;-73
2023/01/09 10:50:33;;;;;;;;;;;5.50;99.90;;;;;;5009541;28;19933;-72
2023/01/09 10:53:23;;;;;;;;;;;5.60;99.90;;;;;;5021000;28;20372;-73
2023/01/09 10:55:53;;;;;;;;;;;5.50;99.90;;;;;;5009853;28;20285;-71
2023/01/09 10:58:23;;;;;;;;;;;5.60;99.90;;;;;;5003101;28;19964;-73
2023/01/09 11:00:52;;;;;;;;;;;5.60;99.90;;;;;;5023449;28;19932;-73
2023/01/09 11:03:20;;;;;;;;;;;5.60;99.90;;;;;;5012061;28;19925;-73
2023/01/09 11:05:54;;;;;;;;;;;5.60;99.90;;;;;;5007778;28;20016;-73
2023/01/09 11:08:41;;;;;;;;;;;5.70;99.90;;;;;;5005344;28;20420;-73
2023/01/09 11:11:09;;;;;;;;;;;5.70;99.90;;;;;;5007510;28;19972;-72
2023/01/09 11:13:42;;;;;;;;;;;5.80;99.90;;;;;;5008675;28;20012;-73
2023/01/09 11:16:10;;;;;;;;;;;5.80;99.90;;;;;;5008124;28;19976;-72
2023/01/09 11:18:48;;;;;;;;;;;5.80;99.90;;;;;;5009513;28;19960;-71
2023/01/09 11:21:34;;;;;;;;;;;5.80;99.90;;;;;;5011165;28;19997;-73
2023/01/09 11:24:25;;;;;;;;;;;5.80;99.90;;;;;;5006282;28;19933;-70
2023/01/09 11:27:19;;;;;;;;;;;5.80;99.90;;;;;;5023644;28;19957;-70
2023/01/09 11:31:01;;;;;;;;;;;5.90;99.90;;;;;;5006099;28;20392;-72
2023/01/09 11:33:37;;;;;;;;;;;5.90;99.90;;;;;;5007671;28;19933;-72
2023/01/09 11:36:09;;;;;;;;;;;6.00;99.90;;;;;;5009272;28;20016;-71
2023/01/09 11:38:49;;;;;;;;;;;6.00;99.90;;;;;;5004358;28;19983;-73
2023/01/09 11:41:19;;;;;;;;;;;6.00;99.90;;;;;;5007475;28;19926;-73
2023/01/09 11:43:52;;;;;;;;;;;6.00;99.90;;;;;;4993896;28;19926;-73
2023/01/09 11:46:42;;;;;;;;;;;6.10;99.90;;;;;;5003106;28;19960;-72
2023/01/09 11:49:13;;;;;;;;;;;6.10;99.90;;;;;;5007078;28;20012;-73
2023/01/09 11:51:43;;;;;;;;;;;6.20;99.90;;;;;;5006727;28;19926;-73
2023/01/09 11:54:15;;;;;;;;;;;6.20;99.90;;;;;;5008178;28;20041;-73
2023/01/09 11:56:45;;;;;;;;;;;6.20;99.90;;;;;;5022457;28;19937;-71
2023/01/09 11:59:16;;;;;;;;;;;6.30;99.90;;;;;;5007074;28;19936;-71
2023/01/09 12:01:47;;;;;;;;;;;6.30;99.90;;;;;;5008045;28;19929;-73
2023/01/09 12:04:19;;;;;;;;;;;6.30;99.90;;;;;;4985107;28;19933;-72
2023/01/09 12:06:56;;;;;;;;;;;6.30;99.90;;;;;;5005937;28;20405;-73
2023/01/09 12:09:28;;;;;;;;;;;6.30;99.90;;;;;;5022322;28;19933;-72
2023/01/09 12:12:19;;;;;;;;;;;6.30;99.90;;;;;;5007490;28;20020;-73
2023/01/09 12:14:48;;;;;;;;;;;6.30;99.90;;;;;;4986147;28;20281;-73
2023/01/09 12:17:23;;;;;;;;;;;6.30;99.90;;;;;;5007005;28;19925;-73
2023/01/09 12:20:07;;;;;;;;;;;6.40;99.90;;;;;;5019870;28;19929;-73
2023/01/09 12:22:37;;;;;;;;;;;6.40;99.90;;;;;;5006919;28;19969;-73
2023/01/09 12:25:11;;;;;;;;;;;6.40;99.90;;;;;;5006791;28;20380;-73
2023/01/09 12:28:00;;;;;;;;;;;6.40;99.90;;;;;;5017119;28;19925;-73
2023/01/09 12:30:59;;;;;;;;;;;6.40;99.90;;;;;;5032777;28;19932;-72
2023/01/09 12:33:27;;;;;;;;;;;6.40;99.90;;;;;;5020084;28;20387;-73
2023/01/09 12:36:16;;;;;;;;;;;6.40;99.90;;;;;;5005117;28;20004;-73
2023/01/09 12:39:09;;;;;;;;;;;6.40;99.90;;;;;;5000787;28;19929;-72
2023/01/09 12:41:41;;;;;;;;;;;6.40;99.90;;;;;;5023611;28;20037;-72
2023/01/09 12:44:22;;;;;;;;;;;6.40;99.90;;;;;;5021081;28;19965;-73
2023/01/09 12:47:11;;;;;;;;;;;6.40;99.90;;;;;;5005711;28;19930;-73
2023/01/09 12:49:45;;;;;;;;;;;6.40;99.90;;;;;;4994420;28;20273;-73
2023/01/09 12:52:17;;;;;;;;;;;6.40;99.90;;;;;;5005966;28;19969;-72
2023/01/09 12:55:11;;;;;;;;;;;6.40;99.90;;;;;;5008258;28;19987;-71
2023/01/09 12:57:49;;;;;;;;;;;6.40;99.90;;;;;;5012547;28;19930;-73
2023/01/09 13:00:22;;;;;;;;;;;6.40;99.90;;;;;;4985127;28;20480;-73
2023/01/09 13:02:56;;;;;;;;;;;6.50;99.90;;;;;;5019500;28;20401;-73
2023/01/09 13:05:37;;;;;;;;;;;6.50;99.90;;;;;;5008415;28;19929;-73
2023/01/09 13:08:08;;;;;;;;;;;6.50;99.90;;;;;;5016863;28;20332;-73
2023/01/09 13:10:42;;;;;;;;;;;6.50;99.90;;;;;;4995190;28;20373;-70
2023/01/09 13:13:28;;;;;;;;;;;6.60;99.90;;;;;;5020317;28;19925;-71
2023/01/09 13:15:57;;;;;;;;;;;6.60;99.90;;;;;;5005325;28;19926;-73
2023/01/09 13:18:39;;;;;;;;;;;6.60;99.90;;;;;;5004958;28;19925;-73
2023/01/09 13:21:08;;;;;;;;;;;6.60;99.90;;;;;;5005020;28;20376;-71
2023/01/09 13:23:46;;;;;;;;;;;6.60;99.90;;;;;;5021936;28;20032;-73
2023/01/09 13:26:24;;;;;;;;;;;6.60;99.90;;;;;;5005960;28;19929;-73
2023/01/09 13:29:05;;;;;;;;;;;6.60;99.90;;;;;;5001942;28;19937;-73
2023/01/09 13:31:37;;;;;;;;;;;6.70;99.90;;;;;;5006134;28;19929;-73
2023/01/09 13:34:11;;;;;;;;;;;6.60;99.90;;;;;;5015683;28;20031;-73
2023/01/09 13:36:46;;;;;;;;;;;6.60;99.90;;;;;;5003877;28;19929;-73
2023/01/09 13:39:20;;;;;;;;;;;6.70;99.90;;;;;;5003288;28;20052;-71
2023/01/09 13:44:48;;;;;;;;;;;6.60;99.90;;;;;;4998134;28;19930;-72
2023/01/09 13:47:18;;;;;;;;;;;6.50;99.90;;;;;;5020115;28;20404;-73
2023/01/09 13:49:47;;;;;;;;;;;6.50;99.90;;;;;;5006733;28;19925;-73
2023/01/09 13:52:36;;;;;;;;;;;6.50;99.90;;;;;;5017429;28;20000;-70
2023/01/09 13:55:10;;;;;;;;;;;6.50;99.90;;;;;;4998382;28;19926;-71
2023/01/09 13:57:41;;;;;;;;;;;6.50;99.90;;;;;;5006772;28;20376;-72
2023/01/09 14:00:16;;;;;;;;;;;6.50;99.90;;;;;;4996525;28;20012;-73
2023/01/09 14:02:45;;;;;;;;;;;6.50;99.90;;;;;;5002883;28;19991;-72
2023/01/09 14:05:16;;;;;;;;;;;6.40;99.90;;;;;;4986826;28;19926;-73
2023/01/09 14:08:11;;;;;;;;;;;6.40;99.90;;;;;;5019694;28;19934;-73
2023/01/09 14:10:43;;;;;;;;;;;6.40;99.90;;;;;;5002710;28;19964;-73
2023/01/09 14:13:15;;;;;;;;;;;6.30;99.90;;;;;;5008890;28;19925;-73
2023/01/09 14:15:45;;;;;;;;;;;6.20;99.90;;;;;;5006915;28;19953;-74
2023/01/09 14:18:17;;;;;;;;;;;6.10;99.90;;;;;;5011201;28;19987;-74
2023/01/09 14:20:53;;;;;;;;;;;6.00;99.90;;;;;;5009615;28;19925;-73
2023/01/09 14:23:23;;;;;;;;;;;5.90;99.90;;;;;;5016443;28;19960;-74
2023/01/09 14:25:53;;;;;;;;;;;5.90;99.90;;;;;;4992034;28;19930;-74
2023/01/09 14:28:23;;;;;;;;;;;5.90;99.90;;;;;;5008178;28;20296;-74
2023/01/09 14:30:55;;;;;;;;;;;5.90;99.90;;;;;;5021821;28;20643;-73
2023/01/09 14:33:29;;;;;;;;;;;5.80;99.90;;;;;;5025151;28;19925;-73
2023/01/09 14:36:30;;;;;;;;;;;5.80;99.90;;;;;;5008082;28;19980;-73
2023/01/09 14:39:02;;;;;;;;;;;5.80;99.90;;;;;;4960730;28;20048;-74
2023/01/09 14:44:23;;;;;;;;;;;5.80;99.90;;;;;;5020220;28;19929;-73
2023/01/09 14:46:52;;;;;;;;;;;5.80;99.90;;;;;;5010124;28;19932;-74
2023/01/09 14:49:33;;;;;;;;;;;5.80;99.90;;;;;;5006004;28;20385;-74
2023/01/09 14:52:27;;;;;;;;;;;5.90;99.90;;;;;;5008175;28;19925;-71
2023/01/09 14:54:59;;;;;;;;;;;5.90;99.90;;;;;;4992904;28;20359;-74
2023/01/09 14:57:29;;;;;;;;;;;5.90;99.90;;;;;;5025144;28;19933;-73
2023/01/09 15:00:17;;;;;;;;;;;5.90;99.90;;;;;;5021751;28;20450;-74
2023/01/09 15:02:50;;;;;;;;;;;5.90;99.90;;;;;;5008811;28;20429;-73
2023/01/09 15:05:23;;;;;;;;;;;5.80;99.90;;;;;;5008814;28;20348;-74
2023/01/09 15:07:54;;;;;;;;;;;5.80;99.90;;;;;;5011099;28;19933;-71
2023/01/09 15:10:28;;;;;;;;;;;5.80;99.90;;;;;;5016934;28;20831;-71
2023/01/09 15:13:00;;;;;;;;;;;5.80;99.90;;;;;;5005973;28;19943;-73
2023/01/09 15:15:31;;;;;;;;;;;5.80;99.90;;;;;;5009768;28;19925;-73
2023/01/09 15:18:04;;;;;;;;;;;5.80;99.90;;;;;;5009037;28;19929;-72
2023/01/09 15:20:34;;;;;;;;;;;5.80;99.90;;;;;;5017346;28;20389;-74
2023/01/09 15:23:06;;;;;;;;;;;5.80;99.90;;;;;;5010982;28;19932;-70
2023/01/09 15:25:36;;;;;;;;;;;5.90;99.90;;;;;;5024628;28;19953;-72